EWR weather

Newark Liberty International Airport
Newark, New Jersey, United States

Public forecast

Using degrees Fahrenheit for public forecast. Weather courtesy of forecast.io.

Current aviation weather report (METAR) for Newark Liberty International Airport

Retrieved 2019/10/17 03:51 UTC (20 minutes ago):

KEWR 170351Z 30026G35KT 8SM FEW007 BKN050 OVC070 12/08 A2924 RMK AO2 PK WND 27042/0310 RAE49 SLP902 P0000 T01170083

Aviation forecast (TAF) for Newark Liberty International Airport

Retrieved 2019-10-17 00:46 UTC (3 hours ago):

TAF KEWR 162344Z 1700/1806 07016G23KT 4SM -RA BR OVC015 WS020/14050KT FM170200 32022G32KT 4SM -RA BR SCT008 OVC015 TEMPO 1702/1703 2SM RA BR BKN008 FM170400 30024G34KT P6SM BKN015 FM170600 27021G31KT P6SM BKN035 FM170900 26020G30KT P6SM BKN045 FM171500 27025G35KT P6SM BKN050 FM172300 27020G39KT P6SM BKN050 FM180400 29015G25KT P6SM BKN050